Hamilton, Ohio
Current Conditions -  °F | °C
As of 2:53 PM on Thursday 23 Oct 2014 (Local Time) from KHAO Reporting Station
Clear Clear  
Wind Chill: 60°   Ceiling: Unl
Heat Index: 60°   Visibility: 10mi
Dew Point: 42°   Wind: 3mph
Humidity: 51%   Direction: NA
Pressure: 30.19"   Gusts: NA
Location:  39.4°N, 84.56°W
Report Text: KHAO 231853Z AUTO VRB03KT 10SM CLR 16/06 A3019 RMK AO2 SLP222 T01560056
Loading
Personal Weather Stations






























Interactive Weather Map New forecast layout! Learn more

10-Day Weather Forecast

Advertisements
Track Severe Weather on mobile